Time;durP1;ratioP1;P1;durP2;ratioP2;P2;SDS_P1;SDS_P2;PMS_P1;PMS_P2;Temp;Humidity;BMP_temperature;BMP_pressure;BME280_temperature;BME280_humidity;BME280_pressure;Samples;Min_cycle;Max_cycle;Signal;HPM_P1;HPM_P2
2022/04/13 00:02:02;;;;;;;21.40;8.32;;;;;;;-146.64;100.00;72967.03;5007674;28;20025;-77
2022/04/13 00:04:27;;;;;;;16.33;7.13;;;;;;;-146.64;100.00;73759.69;4998664;28;20362;-76
2022/04/13 00:06:53;;;;;;;27.77;8.93;;;;;;;-146.64;100.00;74288.22;5000757;28;20117;-76
2022/04/13 00:09:19;;;;;;;17.80;7.50;;;;;;;-146.64;100.00;76667.50;5013605;28;20428;-74
2022/04/13 00:11:44;;;;;;;13.70;6.70;;;;;;;-146.64;100.00;78254.47;5003621;28;20076;-77
2022/04/13 00:14:09;;;;;;;22.20;7.33;;;;;;;-146.64;100.00;79842.06;4999958;28;20424;-78
2022/04/13 00:16:35;;;;;;;33.80;7.70;;;;;;;-146.64;100.00;80106.72;5013306;28;20060;-78
2022/04/13 00:19:01;;;;;;;25.33;8.00;;;;;;;-146.64;100.00;80636.09;5020369;28;20021;-77
2022/04/13 00:21:27;;;;;;;24.47;7.57;;;;;;;-146.64;100.00;81959.81;4984451;28;20794;-79
2022/04/13 00:23:52;;;;;;;34.03;8.07;;;;;;;-146.64;100.00;83548.88;4986078;28;20029;-78
2022/04/13 00:26:19;;;;;;;31.73;8.17;;;;;;;-146.64;100.00;84608.59;5012457;28;20072;-79
2022/04/13 00:28:44;;;;;;;28.42;7.57;;;;;;;-146.64;100.00;87524.28;5003391;28;20048;-78
2022/04/13 00:31:10;;;;;;;23.67;8.10;;;;;;;-146.64;100.00;87789.44;4990607;28;20034;-78
2022/04/13 00:33:35;;;;;;;18.17;8.77;;;;;;;-146.64;100.00;89115.53;5016186;28;20029;-78
2022/04/13 00:36:00;;;;;;;18.90;9.23;;;;;;;-146.64;100.00;89911.41;4996183;28;20109;-77
2022/04/13 00:38:26;;;;;;;15.80;8.20;;;;;;;-146.64;100.00;90707.41;4994087;28;20030;-78
2022/04/13 00:40:51;;;;;;;17.03;8.70;;;;;;;-146.64;100.00;91503.59;4999375;28;20040;-77
2022/04/13 00:43:17;;;;;;;18.20;8.97;;;;;;;-146.64;100.00;91769.03;5024219;28;20037;-77
2022/04/13 00:45:47;;;;;;;19.77;10.00;;;;;;;-146.64;100.00;93893.06;5018965;28;20038;-77
2022/04/13 00:48:27;;;;;;;24.13;9.30;;;;;;;-146.64;100.00;94689.88;4995355;28;20034;-77
2022/04/13 00:50:54;;;;;;;24.92;9.45;;;;;;;-146.64;100.00;96018.25;5018645;28;20032;-76
2022/04/13 00:53:19;;;;;;;;;;;;;;;-146.64;100.00;95752.53;5016652;28;20061;-78
2022/04/13 00:55:46;;;;;;;17.73;9.90;;;;;;;-146.64;100.00;97612.84;5005402;28;19953;-77
2022/04/13 00:58:13;;;;;;;21.52;9.23;;;;;;;-146.64;100.00;98144.53;4999593;28;20400;-76
2022/04/13 01:00:48;;;;;;;24.45;9.75;;;;;;;-146.64;100.00;99208.09;5003879;28;20087;-77
2022/04/13 01:03:17;;;;;;;21.35;9.65;;;;;;;-146.64;100.00;97878.69;5012971;28;20061;-77
2022/04/13 01:05:45;;;;;;;17.48;9.52;;;;;;;-146.64;100.00;99474.03;5011512;28;20033;-77
2022/04/13 01:08:15;;;;;;;23.75;10.00;;;;;;;-146.64;100.00;99739.97;4994827;28;20064;-76
2022/04/13 01:10:41;;;;;;;23.63;9.32;;;;;;;-146.64;100.00;100005.94;4987469;28;20034;-78
2022/04/13 01:13:06;;;;;;;22.07;10.77;;;;;;;-146.64;100.00;100803.97;5014886;28;20083;-78
2022/04/13 01:15:35;;;;;;;17.93;9.77;;;;;;;-146.64;100.00;101336.06;5023326;28;20151;-78
2022/04/13 01:18:00;;;;;;;25.30;10.02;;;;;;;-146.64;100.00;101336.06;4987928;28;20026;-77
2022/04/13 01:20:30;;;;;;;25.23;10.63;;;;;;;-146.64;100.00;101602.13;4986944;28;20041;-78
2022/04/13 01:22:57;;;;;;;25.35;11.45;;;;;;;-146.64;100.00;102400.44;5015994;28;20049;-78
2022/04/13 01:25:22;;;;;;;21.30;9.65;;;;;;;-146.64;100.00;103731.34;5014029;28;20065;-77
2022/04/13 01:27:48;;;;;;;21.53;10.97;;;;;;;-146.64;100.00;103198.94;4987034;28;20069;-78
2022/04/13 01:30:17;;;;;;;23.67;10.03;;;;;;;-146.64;100.00;103465.13;4997593;28;20032;-79
2022/04/13 01:32:42;;;;;;;28.58;11.55;;;;;;;-146.64;100.00;103731.34;5017612;28;20119;-77
2022/04/13 01:35:07;;;;;;;35.10;10.00;;;;;;;-146.64;100.00;102932.75;5014062;28;20029;-78
2022/04/13 01:37:34;;;;;;;21.10;10.07;;;;;;;-146.64;100.00;103198.94;5016616;28;20034;-77
2022/04/13 01:40:01;;;;;;;22.42;10.00;;;;;;;-146.64;100.00;103465.13;5006322;28;20049;-78
2022/04/13 01:42:26;;;;;;;;;;;;;;;-146.64;100.00;102666.59;4998196;28;20515;-78
2022/04/13 01:44:52;;;;;;;19.60;10.07;;;;;;;-146.64;100.00;103731.34;5011647;28;19967;-77
2022/04/13 01:47:18;;;;;;;29.42;10.30;;;;;;;-146.64;100.00;105595.31;5002208;28;20025;-78
2022/04/13 01:49:44;;;;;;;20.43;10.43;;;;;;;-146.64;100.00;104796.38;5015149;28;20484;-78
2022/04/13 01:52:10;;;;;;;28.57;10.47;;;;;;;-146.64;100.00;104796.38;5009898;28;20041;-77
2022/04/13 01:54:37;;;;;;;20.75;10.55;;;;;;;-146.64;100.00;104530.09;4994184;28;20037;-78
2022/04/13 01:57:03;;;;;;;27.77;11.57;;;;;;;-146.64;100.00;105861.69;4987001;28;20037;-78
2022/04/13 01:59:29;;;;;;;17.03;10.50;;;;;;;-146.64;100.00;106660.84;5012248;28;20041;-78
2022/04/13 02:01:54;;;;;;;25.00;11.10;;;;;;;-146.64;100.00;106394.44;5030206;28;20041;-78
2022/04/13 02:04:22;;;;;;;18.00;12.00;;;;;;;-146.64;100.00;107460.16;4996266;28;20030;-77
2022/04/13 02:06:48;;;;;;;29.27;12.35;;;;;;;-146.64;100.00;107726.63;5011452;28;20025;-75
2022/04/13 02:09:14;;;;;;;18.30;11.82;;;;;;;-146.64;100.00;107726.63;4989833;28;20079;-77
2022/04/13 02:11:40;;;;;;;24.10;12.68;;;;;;;-146.64;100.00;108259.63;5004532;28;20052;-77
2022/04/13 02:14:05;;;;;;;21.03;12.67;;;;;;;-146.64;100.00;108259.63;4984750;28;20030;-76
2022/04/13 02:16:31;;;;;;;23.83;12.87;;;;;;;-146.64;100.00;108526.16;4989699;28;20036;-77
2022/04/13 02:18:56;;;;;;;26.90;12.83;;;;;;;-146.64;100.00;108526.16;5001950;28;20026;-76
2022/04/13 02:21:23;;;;;;;25.57;12.87;;;;;;;-146.64;100.00;108792.72;4996897;28;20037;-76
2022/04/13 02:23:48;;;;;;;25.40;12.63;;;;;;;-146.64;100.00;108792.72;4993159;28;20030;-76
2022/04/13 02:26:17;;;;;;;29.23;14.43;;;;;;;-146.64;100.00;108526.16;5018161;28;20481;-77
2022/04/13 02:28:43;;;;;;;28.98;12.75;;;;;;;-146.64;100.00;109059.28;4996044;28;20025;-77
2022/04/13 02:31:08;;;;;;;21.93;12.77;;;;;;;-146.64;100.00;109325.84;5021845;28;20033;-77
2022/04/13 02:33:34;;;;;;;26.60;12.93;;;;;;;-146.64;100.00;109859.06;5011234;28;20030;-78
2022/04/13 02:35:59;;;;;;;24.67;12.63;;;;;;;-146.64;100.00;110125.69;4993945;28;20065;-78
2022/04/13 02:38:26;;;;;;;25.57;12.37;;;;;;;-146.64;100.00;109859.06;4988182;28;20033;-77
2022/04/13 02:40:52;;;;;;;21.92;12.68;;;;;;;-146.64;100.00;109859.06;5011636;28;20030;-76
2022/04/13 02:43:19;;;;;;;28.97;13.77;;;;;;;-146.64;100.00;110125.69;5010513;28;20524;-76
2022/04/13 02:45:44;;;;;;;22.00;12.50;;;;;;;-146.64;100.00;110925.69;5013494;28;20369;-76
2022/04/13 02:48:10;;;;;;;18.90;13.13;;;;;;;-146.64;100.00;111459.13;5005553;28;20038;-77
2022/04/13 02:50:35;;;;;;;21.43;11.67;;;;;;;-146.64;100.00;111459.13;5001849;28;20038;-76
2022/04/13 02:53:01;;;;;;;24.15;12.43;;;;;;;-146.64;100.00;110925.69;5007846;28;20038;-77
2022/04/13 02:55:26;;;;;;;22.77;13.50;;;;;;;-146.64;100.00;111459.13;4984245;28;20030;-78
2022/04/13 02:57:53;;;;;;;30.83;13.10;;;;;;;-146.64;100.00;110925.69;4991102;28;20029;-76
2022/04/13 03:00:19;;;;;;;25.38;12.25;;;;;;;-146.64;100.00;111992.59;5002970;28;20029;-76
2022/04/13 03:02:44;;;;;;;26.53;11.90;;;;;;;-146.64;100.00;111459.13;4997034;28;20388;-77
2022/04/13 03:05:10;;;;;;;28.13;11.30;;;;;;;-146.64;100.00;111192.41;5032153;28;20361;-77
2022/04/13 03:07:36;;;;;;;36.37;12.37;;;;;;;-146.64;100.00;111459.13;5004926;28;20042;-77
2022/04/13 03:10:06;;;;;;;25.57;12.43;;;;;;;-146.64;100.00;111725.84;4996843;28;20274;-77
2022/04/13 03:12:35;;;;;;;21.48;11.40;;;;;;;-146.64;100.00;111992.59;5015496;28;20366;-78
2022/04/13 03:15:02;;;;;;;32.47;11.68;;;;;;;-146.64;100.00;111725.84;5007358;28;20034;-76
2022/04/13 03:17:29;;;;;;;19.90;11.27;;;;;;;-146.64;100.00;111725.84;5009148;28;20091;-77
2022/04/13 03:19:54;;;;;;;25.23;11.32;;;;;;;-146.64;100.00;111725.84;5014575;28;20029;-77
2022/04/13 03:22:24;;;;;;;19.17;10.63;;;;;;;-146.64;100.00;111459.13;5005678;28;20040;-74
2022/04/13 03:24:52;;;;;;;22.00;11.27;;;;;;;-146.64;100.00;112259.38;4992943;28;20034;-77
2022/04/13 03:27:18;;;;;;;24.45;11.82;;;;;;;-146.64;100.00;112259.38;5024890;28;20044;-77
2022/04/13 03:29:43;;;;;;;19.33;11.02;;;;;;;-146.64;100.00;112259.38;5004024;28;20481;-76
2022/04/13 03:32:09;;;;;;;18.90;10.93;;;;;;;-146.64;100.00;112792.97;4969898;28;20049;-77
2022/04/13 03:34:35;;;;;;;22.13;11.23;;;;;;;-146.64;100.00;113059.81;4998878;28;20385;-78
2022/04/13 03:37:00;;;;;;;21.23;11.60;;;;;;;-146.64;100.00;113326.63;5012756;28;20026;-77
2022/04/13 03:39:26;;;;;;;26.43;11.20;;;;;;;-146.64;100.00;112792.97;5013393;28;20033;-77
2022/04/13 03:41:52;;;;;;;25.13;10.53;;;;;;;-146.64;100.00;113059.81;4990007;28;20037;-75
2022/04/13 03:44:17;;;;;;;27.27;12.20;;;;;;;-146.64;100.00;113326.63;5005502;28;20121;-76
2022/04/13 03:46:43;;;;;;;29.63;11.63;;;;;;;-146.64;100.00;113860.38;5008118;28;20112;-76
2022/04/13 03:49:09;;;;;;;24.23;10.25;;;;;;;-146.64;100.00;113326.63;5002973;28;20056;-76
2022/04/13 03:51:35;;;;;;;24.80;11.27;;;;;;;-146.64;100.00;113593.50;5008994;28;20076;-78
2022/04/13 03:54:00;;;;;;;21.90;10.47;;;;;;;-146.64;100.00;113860.38;4983347;28;20034;-77
2022/04/13 03:56:26;;;;;;;20.80;11.10;;;;;;;-146.64;100.00;113860.38;4998144;28;20042;-76
2022/04/13 03:58:51;;;;;;;26.08;10.57;;;;;;;-146.64;100.00;113593.50;4997937;28;20033;-77
2022/04/13 04:01:17;;;;;;;30.43;11.47;;;;;;;-146.64;100.00;114394.19;5016395;28;20033;-77
2022/04/13 04:03:44;;;;;;;27.10;11.03;;;;;;;-146.64;100.00;114661.13;5013396;28;20037;-78
2022/04/13 04:06:10;;;;;;;18.13;11.45;;;;;;;-146.64;100.00;114928.06;5005655;28;20397;-77
2022/04/13 04:08:36;;;;;;;33.15;11.15;;;;;;;-146.64;100.00;114661.13;5028617;28;20048;-77
2022/04/13 04:11:01;;;;;;;24.60;11.20;;;;;;;-146.64;100.00;114661.13;5015610;28;20104;-77
2022/04/13 04:13:27;;;;;;;28.70;11.60;;;;;;;-146.64;100.00;115195.03;5014745;28;20048;-78
2022/04/13 04:15:52;;;;;;;16.00;10.47;;;;;;;-146.64;100.00;115462.00;5029197;28;20350;-77
2022/04/13 04:18:18;;;;;;;18.23;11.07;;;;;;;-146.64;100.00;115195.03;5010957;28;20041;-78
2022/04/13 04:20:43;;;;;;;23.70;11.87;;;;;;;-146.64;100.00;115462.00;5015635;28;20038;-78
2022/04/13 04:23:08;;;;;;;24.40;13.00;;;;;;;-146.64;100.00;115729.00;4995246;28;20076;-77
2022/04/13 04:25:36;;;;;;;28.33;13.37;;;;;;;-146.64;100.00;115996.03;5000353;28;20042;-76
2022/04/13 04:28:03;;;;;;;25.73;14.25;;;;;;;-146.64;100.00;116263.06;4995657;28;20516;-77
2022/04/13 04:30:30;;;;;;;;;;;;;;;-146.64;100.00;116530.09;5000164;28;20026;-77
2022/04/13 04:32:56;;;;;;;25.90;13.80;;;;;;;-146.64;100.00;116797.16;5021760;28;19977;-78
2022/04/13 04:35:21;;;;;;;29.10;13.83;;;;;;;-146.64;100.00;116797.16;4981507;28;20049;-77
2022/04/13 04:37:47;;;;;;;29.83;14.87;;;;;;;-146.64;100.00;117331.34;5017606;28;20397;-77
2022/04/13 04:40:12;;;;;;;31.73;14.27;;;;;;;-146.64;100.00;117331.34;4997862;28;20144;-76
2022/04/13 04:42:47;;;;;;;26.63;15.65;;;;;;;-146.64;100.00;117865.63;4989886;28;20147;-77
2022/04/13 04:45:16;;;;;;;26.75;13.95;;;;;;;-146.64;100.00;117865.63;4991874;28;20026;-77
2022/04/13 04:47:42;;;;;;;26.23;14.35;;;;;;;-146.64;100.00;117865.63;4988205;28;20022;-77
2022/04/13 04:50:08;;;;;;;28.97;15.03;;;;;;;-146.64;100.00;118132.78;5008214;28;20034;-77
2022/04/13 04:52:33;;;;;;;39.53;16.47;;;;;;;-146.64;100.00;118399.94;5000931;28;20029;-79
2022/04/13 04:54:59;;;;;;;26.60;15.65;;;;;;;-146.64;100.00;118399.94;5009882;28;20022;-77
2022/04/13 04:57:24;;;;;;;32.00;17.57;;;;;;;-146.64;100.00;118402.03;4986635;28;20026;-77
2022/04/13 04:59:49;;;;;;;25.03;15.90;;;;;;;-146.64;100.00;118402.03;4999242;28;20034;-79
2022/04/13 05:02:14;;;;;;;29.40;16.23;;;;;;;-146.64;100.00;118402.03;4987780;28;20368;-78
2022/04/13 05:04:40;;;;;;;31.30;16.83;;;;;;;-146.64;100.00;118402.03;4978223;28;20055;-78
2022/04/13 05:07:05;;;;;;;32.13;16.40;;;;;;;-146.64;100.00;118402.03;5010231;28;20026;-77
2022/04/13 05:09:30;;;;;;;25.97;16.80;;;;;;;-146.64;100.00;118402.03;4982778;28;20080;-78
2022/04/13 05:11:56;;;;;;;36.20;16.80;;;;;;;-146.64;100.00;118402.03;5003520;28;20033;-77
2022/04/13 05:14:21;;;;;;;35.63;17.87;;;;;;;-146.64;100.00;118402.03;5011298;28;20018;-77
2022/04/13 05:16:46;;;;;;;31.37;17.83;;;;;;;-146.64;100.00;118402.03;4996746;28;20048;-77
2022/04/13 05:19:15;;;;;;;28.63;16.90;;;;;;;-146.64;100.00;118402.03;5028490;28;20116;-77
2022/04/13 05:21:40;;;;;;;36.38;18.80;;;;;;;-146.64;100.00;118402.03;5024709;28;20029;-78
2022/04/13 05:24:06;;;;;;;36.00;18.90;;;;;;;-146.64;100.00;118402.03;5007253;28;20029;-79
2022/04/13 05:26:31;;;;;;;32.10;18.60;;;;;;;-146.64;100.00;118402.03;4991472;28;20026;-79
2022/04/13 05:28:56;;;;;;;34.93;18.70;;;;;;;-146.64;100.00;118399.94;5002025;28;20026;-78
2022/04/13 05:31:22;;;;;;;33.53;19.27;;;;;;;-146.64;100.00;118132.78;4998951;28;20044;-78
2022/04/13 05:33:47;;;;;;;36.80;19.17;;;;;;;-146.64;100.00;118132.78;4975955;28;20540;-78
2022/04/13 05:36:13;;;;;;;35.00;18.83;;;;;;;-146.64;100.00;117598.47;4999468;28;20116;-77
2022/04/13 05:38:40;;;;;;;30.58;17.92;;;;;;;-146.64;100.00;117331.34;4991531;28;20055;-78
2022/04/13 05:41:05;;;;;;;31.42;18.05;;;;;;;-146.64;100.00;117064.25;4990415;28;20029;-77
2022/04/13 05:43:33;;;;;;;30.90;17.00;;;;;;;-146.64;100.00;116797.16;5000936;28;20022;-78
2022/04/13 05:45:58;;;;;;;34.58;18.02;;;;;;;-146.64;100.00;115996.03;5021262;28;20535;-78
2022/04/13 05:48:24;;;;;;;31.27;17.73;;;;;;;-146.64;100.00;114928.06;4989942;28;20033;-77
2022/04/13 05:50:50;;;;;;;31.88;17.05;;;;;;;-146.64;100.00;114127.28;4976941;28;20112;-78
2022/04/13 05:53:16;;;;;;;29.00;16.02;;;;;;;-146.64;100.00;112526.16;5004128;28;20063;-78
2022/04/13 05:55:41;;;;;;;30.80;16.07;;;;;;;-146.64;100.00;111992.59;5025706;28;20087;-78
2022/04/13 05:58:07;;;;;;;30.03;15.40;;;;;;;-146.64;100.00;110659.00;5019348;28;20026;-78
2022/04/13 06:00:32;;;;;;;29.90;14.50;;;;;;;-146.64;100.00;109859.06;5023376;28;20053;-79
2022/04/13 06:02:57;;;;;;;27.07;15.90;;;;;;;-146.64;100.00;109325.84;5004867;28;20340;-77
2022/04/13 06:05:24;;;;;;;27.47;14.13;;;;;;;-146.64;100.00;108792.72;5011104;28;20336;-77
2022/04/13 06:07:49;;;;;;;22.02;13.13;;;;;;;-146.64;100.00;107460.16;5013353;28;20492;-77
2022/04/13 06:10:17;;;;;;;25.87;12.47;;;;;;;-146.64;100.00;106927.25;5003743;28;20121;-78
2022/04/13 06:12:43;;;;;;;23.33;11.77;;;;;;;-146.64;100.00;105595.31;5000870;28;20021;-77
2022/04/13 06:15:10;;;;;;;23.23;13.00;;;;;;;-146.64;100.00;104530.09;5014978;28;20662;-79
2022/04/13 06:17:36;;;;;;;23.40;11.82;;;;;;;-146.64;100.00;103465.13;5009781;28;20089;-78
2022/04/13 06:20:03;;;;;;;27.13;11.77;;;;;;;-146.64;100.00;101336.06;4990650;28;20041;-78
2022/04/13 06:22:33;;;;;;;20.20;10.65;;;;;;;-146.64;100.00;100005.94;5004837;28;20041;-78
2022/04/13 06:25:01;;;;;;;15.82;9.88;;;;;;;-146.64;100.00;98144.53;5000649;28;20120;-77
2022/04/13 06:27:26;;;;;;;18.25;10.38;;;;;;;-146.64;100.00;97081.25;4990106;28;20030;-78
2022/04/13 06:29:53;;;;;;;24.07;9.60;;;;;;;-146.64;100.00;94424.25;4996807;28;20571;-77
2022/04/13 06:32:19;;;;;;;18.38;9.23;;;;;;;-146.64;100.00;94158.66;5005268;28;20053;-79
2022/04/13 06:34:46;;;;;;;19.60;8.65;;;;;;;-146.64;100.00;92565.41;4991657;28;20500;-79
2022/04/13 06:37:11;;;;;;;17.30;9.30;;;;;;;-146.64;100.00;91503.59;4999105;28;20046;-79
2022/04/13 06:39:37;;;;;;;20.23;10.00;;;;;;;-146.64;100.00;93096.44;5004525;28;20172;-79
2022/04/13 06:42:03;;;;;;;20.77;9.10;;;;;;;-146.64;100.00;91769.03;4990982;28;20034;-79
2022/04/13 06:44:29;;;;;;;18.67;8.33;;;;;;;-146.64;100.00;91238.19;5009989;28;20470;-78
2022/04/13 06:46:54;;;;;;;17.13;7.93;;;;;;;-146.64;100.00;91503.59;5008460;28;20499;-78
2022/04/13 06:49:19;;;;;;;19.43;7.37;;;;;;;-146.64;100.00;89911.41;5015919;28;20077;-77
2022/04/13 06:51:48;;;;;;;23.50;8.23;;;;;;;-146.64;100.00;87524.28;5010610;28;20037;-78
2022/04/13 06:54:14;;;;;;;13.52;7.32;;;;;;;-146.64;100.00;86463.78;5009875;28;20121;-78
2022/04/13 06:56:39;;;;;;;14.73;6.63;;;;;;;-146.64;100.00;85933.66;5020621;28;20034;-79
2022/04/13 06:59:05;;;;;;;12.07;7.17;;;;;;;-146.64;100.00;85138.56;5021879;28;20034;-78
2022/04/13 07:01:31;;;;;;;19.37;7.10;;;;;;;-146.64;100.00;84608.59;4986771;28;20038;-79
2022/04/13 07:03:57;;;;;;;15.33;7.63;;;;;;;-146.64;100.00;84078.72;5011319;28;20294;-79
2022/04/13 07:06:23;;;;;;;15.30;7.80;;;;;;;-146.64;100.00;84343.66;5020816;28;20022;-78
2022/04/13 07:08:50;;;;;;;15.30;6.93;;;;;;;-146.64;100.00;84873.56;5028815;28;20045;-77
2022/04/13 07:11:17;;;;;;;16.13;7.28;;;;;;;-146.64;100.00;84343.66;4984490;28;20693;-80
2022/04/13 07:13:43;;;;;;;;;;;;;;;-146.64;100.00;83284.00;5026135;28;20045;-77
2022/04/13 07:16:09;;;;;;;12.88;7.28;;;;;;;-146.64;100.00;82489.44;5002079;28;19968;-78
2022/04/13 07:18:36;;;;;;;17.63;7.50;;;;;;;-146.64;100.00;83019.13;4994399;28;20026;-79
2022/04/13 07:21:01;;;;;;;;;;;;;;;-146.64;100.00;83019.13;5010785;28;20040;-79
2022/04/13 07:23:27;;;;;;;13.40;7.15;;;;;;;-146.64;100.00;83019.13;4987785;28;20347;-78
2022/04/13 07:25:53;;;;;;;18.37;7.97;;;;;;;-146.64;100.00;81959.81;5003093;28;20030;-78
2022/04/13 07:28:20;;;;;;;12.00;7.27;;;;;;;-146.64;100.00;81165.53;4973850;28;20552;-78
2022/04/13 07:30:46;;;;;;;17.55;7.25;;;;;;;-146.64;100.00;81165.53;4981002;28;20029;-79
2022/04/13 07:33:11;;;;;;;15.97;6.80;;;;;;;-146.64;100.00;80106.72;5003666;28;20032;-77
2022/04/13 07:35:36;;;;;;;17.03;7.13;;;;;;;-146.64;100.00;77196.41;4993534;28;20049;-79
2022/04/13 07:38:02;;;;;;;14.10;7.47;;;;;;;-146.64;100.00;76138.66;4988380;28;20043;-78
2022/04/13 07:40:27;;;;;;;13.27;7.20;;;;;;;-146.64;100.00;70854.00;5010440;28;20038;-78
2022/04/13 07:42:53;;;;;;;21.83;7.83;;;;;;;-146.64;100.00;69269.97;5009329;28;20034;-78
2022/04/13 07:45:18;;;;;;;15.50;7.80;;;;;;;-146.64;100.00;67422.72;5004082;28;20029;-79
2022/04/13 07:47:44;;;;;;;11.00;7.00;;;;;;;-146.64;100.00;70061.91;4998955;28;20064;-78
2022/04/13 07:50:12;;;;;;;11.77;7.23;;;;;;;-146.64;100.00;68478.19;5012094;28;20229;-79
2022/04/13 07:52:38;;;;;;;16.83;7.75;;;;;;;-146.64;100.00;71382.16;4988993;28;20137;-79
2022/04/13 07:55:04;;;;;;;14.13;6.57;;;;;;;-146.64;100.00;67158.91;5009895;28;20392;-77
2022/04/13 07:57:30;;;;;;;15.65;7.50;;;;;;;-146.64;100.00;65840.06;5009963;28;20121;-79
2022/04/13 07:59:56;;;;;;;20.88;6.25;;;;;;;-146.64;100.00;64785.31;5017942;28;20515;-78
2022/04/13 08:02:22;;;;;;;18.23;7.23;;;;;;;-146.64;100.00;63467.22;5000479;28;20029;-77
2022/04/13 08:04:47;;;;;;;10.53;5.80;;;;;;;-146.64;100.00;62940.13;5019844;28;20040;-78
2022/04/13 08:07:15;;;;;;;12.50;5.93;;;;;;;-146.64;100.00;60569.03;4985736;28;20025;-77
2022/04/13 08:09:41;;;;;;;17.27;6.10;;;;;;;-146.64;100.00;58199.34;4985743;28;20443;-79
2022/04/13 08:12:07;;;;;;;15.25;7.05;;;;;;;-146.64;100.00;57146.59;4987602;28;20030;-78
2022/04/13 08:14:32;;;;;;;13.57;6.00;;;;;;;-146.64;100.00;59515.66;4978903;28;20459;-79
2022/04/13 08:16:58;;;;;;;13.93;6.73;;;;;;;-146.64;100.00;57409.78;4988483;28;20120;-77
2022/04/13 08:19:23;;;;;;;22.07;7.37;;;;;;;-146.64;100.00;56883.47;4996647;28;20374;-78
2022/04/13 08:21:49;;;;;;;23.07;7.80;;;;;;;-146.64;100.00;55568.03;5009278;28;20022;-78
2022/04/13 08:24:18;;;;;;;13.10;6.57;;;;;;;-146.64;100.00;56094.16;5001279;28;20034;-78
2022/04/13 08:26:44;;;;;;;16.63;7.15;;;;;;;-146.64;100.00;55831.06;5019011;28;20061;-78
2022/04/13 08:29:11;;;;;;;24.17;7.68;;;;;;;-146.64;100.00;56357.25;5019570;28;20029;-77
2022/04/13 08:31:37;;;;;;;13.52;7.13;;;;;;;-146.64;100.00;59778.97;5014513;28;20051;-80
2022/04/13 08:34:02;;;;;;;15.05;7.53;;;;;;;-146.64;100.00;61095.81;4999442;28;20030;-77
2022/04/13 08:36:28;;;;;;;19.03;7.23;;;;;;;-146.64;100.00;62149.59;5006115;28;20045;-77
2022/04/13 08:38:53;;;;;;;20.30;7.27;;;;;;;-146.64;100.00;63467.22;5001183;28;20120;-77
2022/04/13 08:41:52;;;;;;;32.83;8.10;;;;;;;-146.64;100.00;62940.13;5007233;28;20109;-77
2022/04/13 08:44:22;;;;;;;16.50;7.38;;;;;;;-146.64;100.00;62149.59;4979300;28;20133;-79
2022/04/13 08:46:50;;;;;;;15.05;7.30;;;;;;;-146.64;100.00;62413.09;4987787;28;20036;-76
2022/04/13 08:49:17;;;;;;;19.45;8.15;;;;;;;-146.64;100.00;60832.41;4987826;28;20094;-79
2022/04/13 08:51:43;;;;;;;19.98;7.45;;;;;;;-146.64;100.00;62149.59;5023300;28;20586;-79
2022/04/13 08:54:11;;;;;;;13.43;6.67;;;;;;;-146.64;100.00;58462.56;4992333;28;20109;-79
2022/04/13 08:56:36;;;;;;;16.52;8.50;;;;;;;-146.64;100.00;61622.69;5011581;28;20030;-79
2022/04/13 08:59:14;;;;;;;13.67;8.27;;;;;;;-146.64;100.00;62413.09;4986371;28;20022;-77
2022/04/13 09:01:47;;;;;;;;;;;;;;;-146.64;100.00;62413.09;5015121;28;20068;-77
2022/04/13 09:04:15;;;;;;;21.35;8.43;;;;;;;-146.64;100.00;66367.56;5018317;28;19964;-79
2022/04/13 09:06:42;;;;;;;15.27;7.13;;;;;;;-146.64;100.00;62676.59;5005495;28;20111;-78
2022/04/13 09:09:28;;;;;;;14.68;7.35;;;;;;;-146.64;100.00;63203.69;5008378;28;20057;-78
2022/04/13 09:11:56;;;;;;;17.90;8.13;;;;;;;-146.64;100.00;60832.41;4998956;28;20094;-78
2022/04/13 09:14:21;;;;;;;16.02;7.80;;;;;;;-146.64;100.00;62676.59;4996543;28;20036;-78
2022/04/13 09:16:47;;;;;;;18.67;7.30;;;;;;;-146.64;100.00;58462.56;5007344;28;20030;-78
2022/04/13 09:19:12;;;;;;;20.57;7.27;;;;;;;-146.64;100.00;58989.09;5019499;28;20514;-78
2022/04/13 09:21:38;;;;;;;21.10;7.47;;;;;;;-146.64;100.00;58199.34;4993840;28;20041;-78
2022/04/13 09:24:07;;;;;;;21.20;7.47;;;;;;;-146.64;100.00;60042.31;4988507;28;20025;-77
2022/04/13 09:26:33;;;;;;;17.58;7.93;;;;;;;-146.64;100.00;58989.09;4970391;28;20041;-79
2022/04/13 09:28:58;;;;;;;20.97;7.73;;;;;;;-146.64;100.00;57146.59;4986447;28;20072;-77
2022/04/13 09:31:24;;;;;;;17.27;7.70;;;;;;;-146.64;100.00;54778.97;5005875;28;20373;-77
2022/04/13 09:33:49;;;;;;;13.70;7.07;;;;;;;-146.64;100.00;50450.16;5023388;28;20021;-77
2022/04/13 09:36:15;;;;;;;20.13;7.80;;;;;;;-146.64;100.00;52786.47;4989839;28;20030;-78
2022/04/13 09:38:40;;;;;;;12.23;6.93;;;;;;;-146.64;100.00;47661.97;4995210;28;20507;-77
2022/04/13 09:41:08;;;;;;;18.90;7.63;;;;;;;-146.64;100.00;47631.19;5000808;28;20551;-79
2022/04/13 09:43:34;;;;;;;17.98;7.43;;;;;;;-146.64;100.00;43521.22;5012039;28;20029;-79
2022/04/13 09:45:59;;;;;;;17.30;7.33;;;;;;;-146.64;100.00;43381.91;5008412;28;20040;-77
2022/04/13 09:48:26;;;;;;;18.00;6.60;;;;;;;-146.64;100.00;43336.84;5020601;28;20022;-77
2022/04/13 09:50:52;;;;;;;18.75;6.18;;;;;;;-146.64;100.00;45064.28;4992571;28;20027;-77
2022/04/13 09:53:19;;;;;;;16.05;7.82;;;;;;;-146.64;100.00;43564.25;4980504;28;20553;-78
2022/04/13 09:55:53;;;;;;;14.00;7.78;;;;;;;-146.64;100.00;44146.16;5006300;28;20120;-79
2022/04/13 09:58:23;;;;;;;18.42;8.15;;;;;;;-146.64;100.00;42666.97;5011502;28;20044;-77
2022/04/13 10:00:50;;;;;;;20.15;9.23;;;;;;;-146.64;100.00;45627.94;4992149;28;20022;-77
2022/04/13 10:03:17;;;;;;;16.60;8.52;;;;;;;-146.64;100.00;46443.88;4982072;28;20045;-77
2022/04/13 10:05:52;;;;;;;;;;;;;;;-146.64;100.00;47307.16;4990863;28;20049;-78
2022/04/13 10:08:26;;;;;;;16.65;9.10;;;;;;;-146.64;100.00;44756.84;5003563;28;20288;-77
2022/04/13 10:10:54;;;;;;;18.05;8.73;;;;;;;-146.64;100.00;46833.47;5010730;28;20049;-78
2022/04/13 10:13:42;;;;;;;15.45;9.70;;;;;;;-146.64;100.00;47085.69;4999230;28;20030;-78
2022/04/13 10:16:10;;;;;;;23.27;8.63;;;;;;;-146.64;100.00;43097.16;5014538;28;20049;-77
2022/04/13 10:19:03;;;;;;;19.52;7.18;;;;;;;-146.64;100.00;41511.88;5005859;28;20377;-78
2022/04/13 10:21:47;;;;;;;21.42;8.25;;;;;;;-146.64;100.00;39786.03;5003226;28;20026;-78
2022/04/13 10:24:26;;;;;;;19.05;7.88;;;;;;;-146.64;100.00;40177.00;4998091;28;20026;-79
2022/04/13 10:27:19;;;;;;;14.90;7.88;;;;;;;-146.64;100.00;39382.81;5000610;28;20107;-78
2022/04/13 10:29:46;;;;;;;17.38;8.02;;;;;;;-146.64;100.00;39783.97;4992127;28;20030;-78
2022/04/13 10:32:13;;;;;;;21.42;7.47;;;;;;;-146.64;100.00;39129.03;5017181;28;20037;-77
2022/04/13 10:34:43;;;;;;;17.67;7.82;;;;;;;-146.64;100.00;39818.78;4996456;28;20561;-77
2022/04/13 10:37:12;;;;;;;16.52;6.93;;;;;;;-146.64;100.00;39411.47;4998374;28;20392;-78
2022/04/13 10:39:38;;;;;;;14.88;6.07;;;;;;;-146.64;100.00;39632.50;5002173;28;20026;-80
2022/04/13 10:42:04;;;;;;;14.07;5.90;;;;;;;-146.64;100.00;38908.03;5004401;28;20384;-78
2022/04/13 10:44:57;;;;;;;16.52;6.07;;;;;;;-146.64;100.00;38836.41;5010347;28;20057;-80
2022/04/13 10:47:36;;;;;;;10.73;4.57;;;;;;;-146.64;100.00;38646.09;4992134;28;20040;-78
2022/04/13 10:50:03;;;;;;;15.55;5.80;;;;;;;-146.64;100.00;38549.91;4990810;28;20551;-77
2022/04/13 10:52:40;;;;;;;19.13;6.10;;;;;;;-146.64;100.00;38674.75;4998157;28;20037;-78
2022/04/13 10:55:08;;;;;;;14.20;6.25;;;;;;;-146.64;100.00;38539.69;5001361;28;20029;-79
2022/04/13 10:57:46;;;;;;;15.75;7.25;;;;;;;-146.64;100.00;38584.72;4990558;28;20650;-80